Time;durP1;ratioP1;P1;durP2;ratioP2;P2;SDS_P1;SDS_P2;PMS_P1;PMS_P2;Temp;Humidity;BMP_temperature;BMP_pressure;BME280_temperature;BME280_humidity;BME280_pressure;Samples;Min_cycle;Max_cycle;Signal;HPM_P1;HPM_P2
2023/05/06 00:00:24;;;;;;;;;13.67;10.67;;;;;14.72;83.45;101313.53;5015399;28;45197;-70
2023/05/06 00:02:50;;;;;;;;;6.67;6.67;;;;;14.61;83.05;101297.94;5015615;28;45409;-70
2023/05/06 00:05:17;;;;;;;;;5.67;5.67;;;;;14.62;83.23;101303.22;5015279;28;45276;-69
2023/05/06 00:07:43;;;;;;;;;7.00;5.33;;;;;14.62;83.10;101312.94;5015131;28;45682;-68
2023/05/06 00:10:09;;;;;;;;;4.25;3.00;;;;;14.47;83.67;101289.53;5015439;28;45509;-71
2023/05/06 00:12:34;;;;;;;;;3.67;3.67;;;;;14.53;83.40;101305.25;5015226;28;45613;-71
2023/05/06 00:15:00;;;;;;;;;4.00;3.25;;;;;14.51;83.67;101304.41;5014958;28;46583;-71
2023/05/06 00:17:25;;;;;;;;;2.25;2.25;;;;;14.46;83.49;101296.59;5015226;28;45248;-71
2023/05/06 00:19:51;;;;;;;;;4.50;3.00;;;;;14.43;83.79;101300.22;5015156;28;45265;-72
2023/05/06 00:22:16;;;;;;;;;3.00;3.00;;;;;14.43;83.83;101305.50;5015451;28;45300;-71
2023/05/06 00:24:42;;;;;;;;;4.00;4.00;;;;;14.39;84.18;101297.72;5014950;28;45522;-71
2023/05/06 00:27:07;;;;;;;;;3.50;2.50;;;;;14.34;84.39;101287.25;5014740;28;45389;-72
2023/05/06 00:29:33;;;;;;;;;1.50;1.50;;;;;14.41;83.78;101306.50;5015308;28;45443;-71
2023/05/06 00:31:58;;;;;;;;;8.33;8.33;;;;;14.38;84.19;101298.63;5015247;28;45433;-71
2023/05/06 00:34:23;;;;;;;;;5.00;3.00;;;;;14.24;84.06;101277.84;5015128;28;46219;-71
2023/05/06 00:36:49;;;;;;;;;4.00;2.75;;;;;14.35;84.46;101299.59;5015998;27;45268;-71
2023/05/06 00:39:15;;;;;;;;;4.00;2.25;;;;;14.32;84.03;101298.78;5014827;28;45325;-71
2023/05/06 00:41:40;;;;;;;;;3.50;3.00;;;;;14.25;84.21;101288.38;5014764;28;45288;-72
2023/05/06 00:44:06;;;;;;;;;4.50;3.50;;;;;14.18;84.49;101285.97;5014477;28;46193;-72
2023/05/06 00:46:31;;;;;;;;;3.25;3.00;;;;;14.13;84.84;101277.28;5014857;28;45280;-72
2023/05/06 00:48:57;;;;;;;;;4.75;3.75;;;;;14.11;85.37;101277.34;5014921;28;45259;-72
2023/05/06 00:51:22;;;;;;;;;5.25;4.00;;;;;14.10;84.05;101280.88;5015000;28;45215;-73
2023/05/06 00:53:48;;;;;;;;;5.00;4.00;;;;;14.08;85.05;101280.94;5014634;28;46730;-71
2023/05/06 00:56:16;;;;;;;;;4.00;4.00;;;;;13.89;85.06;101250.59;5014574;28;45325;-71
2023/05/06 00:58:42;;;;;;;;;3.75;3.75;;;;;14.05;85.04;101280.16;5014662;28;45471;-67
2023/05/06 01:01:08;;;;;;;;;5.75;3.75;;;;;13.87;85.91;101269.19;5013660;28;45467;-67
2023/05/06 01:03:33;;;;;;;;;4.00;4.00;;;;;13.95;85.50;101270.75;5014098;28;45455;-68
2023/05/06 01:06:10;;;;;;;;;3.00;3.00;;;;;13.91;85.57;101284.06;5014579;27;45384;-68
2023/05/06 01:09:20;;;;;;;;;5.00;3.00;;;;;13.94;85.53;101288.41;5013249;28;45390;-68
2023/05/06 01:12:02;;;;;;;;;6.33;5.33;;;;;13.89;85.36;101283.22;5014411;27;45370;-68
2023/05/06 01:14:30;;;;;;;;;6.00;5.00;;;;;13.91;86.06;101291.13;5014113;28;46903;-68
2023/05/06 01:17:01;;;;;;;;;4.33;4.00;;;;;13.89;85.67;101282.38;5013873;28;45317;-67
2023/05/06 01:19:37;;;;;;;;;7.00;6.00;;;;;13.83;85.34;101269.31;5014175;28;45298;-67
2023/05/06 01:22:05;;;;;;;;;5.33;5.33;;;;;13.83;86.02;101269.31;5014408;28;45553;-68
2023/05/06 01:24:37;;;;;;;;;4.00;4.00;;;;;13.84;85.93;101277.22;5013966;28;47092;-67
2023/05/06 01:27:03;;;;;;;;;5.33;5.00;;;;;13.83;86.21;101266.69;5013817;28;45474;-68
2023/05/06 01:29:28;;;;;;;;;6.00;5.25;;;;;13.76;86.08;101263.31;5014134;28;45753;-68
2023/05/06 01:32:00;;;;;;;;;6.00;6.00;;;;;13.73;86.10;101274.84;5014264;28;45571;-68
2023/05/06 01:34:45;;;;;;;;;7.00;5.33;;;;;13.74;86.44;101279.25;5014711;28;45502;-67
2023/05/06 01:37:28;;;;;;;;;4.50;4.25;;;;;13.73;85.40;101274.00;5014566;28;45710;-67
2023/05/06 01:39:58;;;;;;;;;5.00;5.00;;;;;13.66;85.79;101278.56;5015145;28;45348;-68
2023/05/06 01:42:25;;;;;;;;;7.00;6.00;;;;;13.55;85.83;101262.16;5015503;28;45504;-68
2023/05/06 01:44:53;;;;;;;;;5.25;4.25;;;;;13.51;86.54;101260.47;5016724;28;47435;-68
2023/05/06 01:47:19;;;;;;;;;4.00;2.00;;;;;13.51;86.77;101268.41;5016970;28;45396;-68
2023/05/06 01:49:46;;;;;;;;;8.00;5.50;;;;;13.51;86.05;101255.19;5017238;28;45402;-68
2023/05/06 01:52:14;;;;;;;;;6.00;4.00;;;;;13.60;85.76;101275.25;5017139;28;45461;-68
2023/05/06 01:54:39;;;;;;;;;6.00;6.00;;;;;13.57;86.65;101268.25;5016889;28;45862;-68
2023/05/06 01:57:04;;;;;;;;;4.00;4.00;;;;;13.57;85.78;101268.25;5016609;28;45336;-68
2023/05/06 01:59:30;;;;;;;;;4.50;4.50;;;;;13.49;85.91;101267.56;5016854;28;45286;-68
2023/05/06 02:01:55;;;;;;;;;7.00;6.00;;;;;13.49;86.48;101265.81;5017068;28;45509;-68
2023/05/06 02:04:20;;;;;;;;;5.00;5.00;;;;;13.53;86.78;101274.53;5016649;28;47138;-68
2023/05/06 02:06:46;;;;;;;;;4.67;4.67;;;;;13.51;87.20;101271.06;5016740;28;45293;-69
2023/05/06 02:09:11;;;;;;;;;6.33;5.67;;;;;13.47;87.01;101275.56;5016738;28;45361;-69
2023/05/06 02:11:36;;;;;;;;;5.00;5.00;;;;;13.48;87.13;101281.72;5016975;28;45421;-69
2023/05/06 02:14:02;;;;;;;;;6.33;6.00;;;;;13.47;86.87;101277.34;5016444;28;46134;-69
2023/05/06 02:16:28;;;;;;;;;5.25;5.25;;;;;13.45;87.59;101276.50;5016536;28;45438;-69
2023/05/06 02:18:53;;;;;;;;;4.00;4.00;;;;;13.38;85.75;101273.16;5016817;28;45339;-69
2023/05/06 02:21:19;;;;;;;;;9.00;6.00;;;;;13.30;88.16;101265.41;5016824;28;45302;-69
2023/05/06 02:23:44;;;;;;;;;8.33;5.33;;;;;13.35;87.42;101270.59;5016401;28;45974;-68
2023/05/06 02:26:10;;;;;;;;;6.75;6.75;;;;;13.36;87.62;101272.31;5016453;28;45323;-69
2023/05/06 02:28:35;;;;;;;;;7.00;6.33;;;;;13.45;87.61;101280.03;5016493;28;45581;-69
2023/05/06 02:31:00;;;;;;;;;5.00;5.00;;;;;13.43;86.50;101275.69;5016781;28;45429;-69
2023/05/06 02:33:26;;;;;;;;;5.67;5.00;;;;;13.36;87.09;101273.19;5016320;28;45330;-69
2023/05/06 02:35:51;;;;;;;;;10.33;5.00;;;;;13.26;88.33;101271.66;5016411;28;45801;-69
2023/05/06 02:38:17;;;;;;;;;5.00;4.33;;;;;13.30;88.26;101272.44;5016311;28;45399;-69
2023/05/06 02:40:43;;;;;;;;;8.00;6.33;;;;;13.37;88.27;101276.72;5016653;28;45585;-69
2023/05/06 02:43:08;;;;;;;;;6.00;6.00;;;;;13.35;87.56;101267.94;5016247;28;45334;-69
2023/05/06 02:45:33;;;;;;;;;6.33;6.00;;;;;13.35;87.40;101268.81;5016145;28;45547;-69
2023/05/06 02:47:59;;;;;;;;;8.00;6.00;;;;;13.38;87.64;101278.44;5016628;28;45274;-69
2023/05/06 02:50:24;;;;;;;;;11.00;10.00;;;;;13.32;87.10;101271.50;5016218;28;45529;-70
2023/05/06 02:52:49;;;;;;;;;7.00;7.00;;;;;13.38;87.39;101279.31;5015572;28;47340;-69
2023/05/06 02:55:15;;;;;;;;;8.00;6.67;;;;;13.34;87.34;101276.75;5015637;27;45437;-69
2023/05/06 02:57:40;;;;;;;;;7.00;7.00;;;;;13.23;87.89;101263.81;5016114;28;45352;-67
2023/05/06 03:00:06;;;;;;;;;8.00;7.00;;;;;13.29;87.51;101271.59;5016398;28;45268;-67
2023/05/06 03:02:31;;;;;;;;;6.00;6.00;;;;;13.23;87.49;101263.81;5015693;28;46752;-67
2023/05/06 03:04:57;;;;;;;;;6.67;6.67;;;;;13.06;87.67;101240.44;5016000;28;45311;-67
2023/05/06 03:07:22;;;;;;;;;6.00;6.00;;;;;13.28;87.83;101274.28;5016376;28;45322;-67
2023/05/06 03:09:47;;;;;;;;;4.00;4.00;;;;;13.17;88.05;101259.56;5016232;28;45293;-66
2023/05/06 03:12:13;;;;;;;;;6.00;6.00;;;;;13.21;88.37;101273.53;5016009;28;46321;-66
2023/05/06 03:14:38;;;;;;;;;6.67;4.67;;;;;13.22;87.79;101265.56;5015731;28;45307;-67
2023/05/06 03:17:03;;;;;;;;;6.33;6.33;;;;;13.15;87.48;101250.78;5017257;27;45601;-67
2023/05/06 03:19:29;;;;;;;;;8.00;7.00;;;;;13.15;87.88;101257.84;5016054;28;45344;-66
2023/05/06 03:21:55;;;;;;;;;8.33;6.00;;;;;13.17;88.06;101272.78;5016945;28;46212;-66
2023/05/06 03:24:20;;;;;;;;;7.00;6.67;;;;;13.10;88.19;101260.63;5015797;28;45351;-66
2023/05/06 03:26:45;;;;;;;;;10.33;9.00;;;;;13.12;88.24;101274.66;5015799;28;45474;-66
2023/05/06 03:29:11;;;;;;;;;7.00;7.00;;;;;13.09;88.50;101263.28;5015939;28;45496;-66
2023/05/06 03:31:36;;;;;;;;;7.00;6.67;;;;;13.10;88.00;101267.66;5015724;28;45318;-67
2023/05/06 03:34:01;;;;;;;;;5.00;5.00;;;;;13.00;88.13;101252.03;5015629;28;45282;-67
2023/05/06 03:36:27;;;;;;;;;7.33;6.67;;;;;13.04;88.20;101251.06;5015792;28;45454;-67
2023/05/06 03:38:53;;;;;;;;;7.00;7.00;;;;;13.09;87.87;101258.88;5015900;28;45421;-67
2023/05/06 03:41:18;;;;;;;;;7.67;7.67;;;;;13.02;87.94;101250.22;5015488;28;46684;-68
2023/05/06 03:43:44;;;;;;;;;9.33;8.67;;;;;13.02;87.90;101257.28;5015320;28;45303;-67
2023/05/06 03:46:10;;;;;;;;;8.00;8.00;;;;;12.83;87.97;101228.66;5015603;28;45333;-68
2023/05/06 03:48:35;;;;;;;;;6.00;6.00;;;;;13.03;88.03;101251.09;5015689;28;45330;-67
2023/05/06 03:51:01;;;;;;;;;6.67;6.67;;;;;13.01;87.98;101256.41;5015247;28;45490;-67
2023/05/06 03:53:27;;;;;;;;;6.33;6.00;;;;;12.87;87.57;101230.31;5015311;28;45316;-67
2023/05/06 03:55:52;;;;;;;;;7.00;7.00;;;;;12.94;87.83;101243.38;5015510;28;45324;-68
2023/05/06 03:58:18;;;;;;;;;6.33;6.33;;;;;12.98;87.25;101259.16;5015523;28;45303;-68
2023/05/06 04:00:43;;;;;;;;;8.67;8.33;;;;;12.88;88.27;101245.28;5015365;28;46401;-67
2023/05/06 04:03:08;;;;;;;;;8.33;6.00;;;;;12.84;87.97;101246.25;5015290;28;45304;-68
2023/05/06 04:05:34;;;;;;;;;7.67;7.00;;;;;12.82;88.40;101244.53;5015131;28;45320;-68
2023/05/06 04:07:59;;;;;;;;;11.67;11.00;;;;;12.87;88.35;101256.75;5015725;28;45410;-68
2023/05/06 04:10:24;;;;;;;;;8.67;7.67;;;;;12.82;88.62;101240.16;5014638;28;46402;-68
2023/05/06 04:12:51;;;;;;;;;9.00;9.00;;;;;12.92;88.76;101261.06;5014945;28;45410;-68
2023/05/06 04:15:16;;;;;;;;;10.00;8.00;;;;;12.93;88.53;101263.66;5015049;28;45388;-68
2023/05/06 04:17:41;;;;;;;;;11.00;8.33;;;;;12.94;88.59;101253.94;5015399;28;45336;-68
2023/05/06 04:20:10;;;;;;;;;10.50;10.50;;;;;12.95;88.30;101255.69;5014985;28;45427;-68
2023/05/06 04:22:36;;;;;;;;;11.00;9.00;;;;;12.91;88.67;101259.31;5014937;28;45365;-68
2023/05/06 04:25:01;;;;;;;;;7.00;7.00;;;;;12.86;88.74;101249.72;5015212;28;45320;-67
2023/05/06 04:27:28;;;;;;;;;8.00;8.00;;;;;12.92;88.22;101255.78;5015029;28;45454;-66
2023/05/06 04:29:54;;;;;;;;;8.33;8.33;;;;;12.87;88.67;101250.59;5014818;28;47311;-66
2023/05/06 04:32:19;;;;;;;;;8.33;7.67;;;;;12.88;88.62;101247.03;5017273;28;45328;-66
2023/05/06 04:34:46;;;;;;;;;10.33;9.00;;;;;12.90;88.20;101253.16;5021388;28;45488;-67
2023/05/06 04:37:12;;;;;;;;;12.00;9.00;;;;;12.83;89.07;101244.50;5019686;28;45249;-67
2023/05/06 04:39:38;;;;;;;;;10.00;9.00;;;;;12.87;88.73;101255.88;5014764;28;46826;-67
2023/05/06 04:42:03;;;;;;;;;11.67;10.00;;;;;12.85;89.13;101260.31;5014663;28;45369;-67
2023/05/06 04:44:29;;;;;;;;;8.33;8.33;;;;;12.80;88.98;101260.44;5014755;28;45284;-67
2023/05/06 04:46:55;;;;;;;;;7.33;7.33;;;;;12.85;88.52;101271.78;5015124;28;45393;-66
2023/05/06 04:49:20;;;;;;;;;9.67;8.33;;;;;12.89;89.31;101275.22;5014517;28;47009;-66
2023/05/06 04:51:46;;;;;;;;;10.00;9.67;;;;;12.82;89.54;101247.19;5014664;28;45439;-66
2023/05/06 04:54:11;;;;;;;;;11.00;11.00;;;;;13.01;89.34;101277.56;5014731;28;45379;-66
2023/05/06 04:56:36;;;;;;;;;11.33;9.67;;;;;13.01;88.61;101268.75;5014873;28;45430;-66
2023/05/06 04:59:02;;;;;;;;;10.33;9.00;;;;;13.11;88.60;101275.53;5014383;28;46434;-66
2023/05/06 05:01:27;;;;;;;;;8.33;8.33;;;;;13.19;88.97;101286.81;5014628;28;45530;-66
2023/05/06 05:03:52;;;;;;;;;8.00;8.00;;;;;13.20;87.76;101275.34;5015468;28;45299;-66
2023/05/06 05:06:18;;;;;;;;;8.00;8.00;;;;;13.28;87.66;101285.72;5014848;28;45331;-66
2023/05/06 05:08:43;;;;;;;;;9.00;9.00;;;;;13.26;87.70;101284.00;5014272;28;47005;-66
2023/05/06 05:11:09;;;;;;;;;9.00;9.00;;;;;13.23;87.07;101282.34;5014399;28;45440;-66
2023/05/06 05:13:34;;;;;;;;;7.67;7.67;;;;;13.21;87.99;101279.69;5014488;28;45352;-69
2023/05/06 05:16:00;;;;;;;;;10.00;7.67;;;;;13.22;87.80;101281.44;5013909;28;45232;-66
2023/05/06 05:18:25;;;;;;;;;10.33;8.00;;;;;13.09;87.18;101250.94;5013837;28;45272;-69
2023/05/06 05:20:50;;;;;;;;;12.00;11.67;;;;;13.35;87.50;101287.31;5014284;28;45453;-69
2023/05/06 05:23:16;;;;;;;;;10.33;8.67;;;;;13.49;87.26;101302.84;5014284;27;45292;-68
2023/05/06 05:25:41;;;;;;;;;9.00;9.00;;;;;13.44;87.10;101275.63;5014529;28;45360;-69
2023/05/06 05:28:06;;;;;;;;;12.67;10.33;;;;;13.65;87.19;101298.03;5013871;28;46423;-68
2023/05/06 05:30:32;;;;;;;;;11.00;9.67;;;;;13.75;86.46;101288.94;5013555;28;45390;-68
2023/05/06 05:32:57;;;;;;;;;12.00;12.00;;;;;13.82;86.15;101286.97;5014342;28;45441;-70
2023/05/06 05:35:22;;;;;;;;;13.33;10.00;;;;;14.03;84.57;101305.78;5014001;28;45222;-68
2023/05/06 05:37:48;;;;;;;;;8.00;8.00;;;;;14.01;85.13;101303.19;5013862;28;46253;-68
2023/05/06 05:40:13;;;;;;;;;14.33;11.67;;;;;14.03;85.26;101300.50;5013876;28;45388;-68
2023/05/06 05:42:39;;;;;;;;;9.67;9.00;;;;;13.96;84.98;101296.31;5014146;28;45236;-68
2023/05/06 05:45:05;;;;;;;;;11.00;11.00;;;;;14.00;85.67;101308.53;5014122;28;45524;-68
2023/05/06 05:47:30;;;;;;;;;30.33;29.67;;;;;13.93;85.05;101287.53;5013708;28;46676;-68
2023/05/06 05:49:56;;;;;;;;;8.33;8.00;;;;;14.03;85.20;101300.50;5013667;28;45336;-68
2023/05/06 05:52:21;;;;;;;;;9.67;8.33;;;;;13.91;84.73;101293.78;5013913;28;46078;-68
2023/05/06 05:54:47;;;;;;;;;8.67;8.00;;;;;14.02;84.98;101304.09;5013965;28;45461;-68
2023/05/06 05:57:12;;;;;;;;;14.33;11.33;;;;;14.03;85.04;101308.44;5013461;28;47150;-68
2023/05/06 05:59:38;;;;;;;;;11.33;11.00;;;;;14.06;84.81;101309.25;5013406;28;45363;-67
2023/05/06 06:02:03;;;;;;;;;8.33;8.33;;;;;14.12;84.99;101315.28;5013783;28;45401;-68
2023/05/06 06:04:29;;;;;;;;;11.33;11.33;;;;;14.06;85.18;101298.66;5013773;27;45311;-67
2023/05/06 06:06:56;;;;;;;;;11.67;11.67;;;;;13.92;84.78;101266.41;5013681;27;45353;-68
2023/05/06 06:09:22;;;;;;;;;9.00;8.67;;;;;14.20;85.12;101313.28;5013829;28;45240;-68
2023/05/06 06:11:47;;;;;;;;;10.67;10.00;;;;;14.24;84.85;101307.84;5013410;28;45418;-67
2023/05/06 06:14:13;;;;;;;;;10.67;10.67;;;;;14.32;84.70;101307.63;5013531;28;45511;-69
2023/05/06 06:16:38;;;;;;;;;9.67;8.67;;;;;14.38;84.42;101298.63;5013341;28;46465;-70
2023/05/06 06:19:03;;;;;;;;;10.00;7.00;;;;;14.36;84.06;101295.16;5013271;28;45415;-69
2023/05/06 06:21:29;;;;;;;;;8.00;6.00;;;;;14.28;83.63;101266.25;5013584;28;45397;-69
2023/05/06 06:23:54;;;;;;;;;11.00;9.33;;;;;14.54;83.79;101305.19;5013686;28;45417;-71
2023/05/06 06:26:20;;;;;;;;;9.33;8.67;;;;;14.54;83.78;101296.41;5013329;28;46083;-68
2023/05/06 06:28:45;;;;;;;;;10.33;8.33;;;;;14.59;83.43;101300.63;5015011;28;45351;-67
2023/05/06 06:31:10;;;;;;;;;11.00;10.00;;;;;14.63;83.57;101310.25;5016807;28;45688;-67
2023/05/06 06:33:36;;;;;;;;;11.67;8.33;;;;;14.69;83.24;101303.88;5016567;28;45348;-68
2023/05/06 06:36:01;;;;;;;;;15.00;13.67;;;;;14.84;83.44;101314.94;5016126;28;46006;-68
2023/05/06 06:38:27;;;;;;;;;11.00;11.00;;;;;14.97;82.95;101318.91;5016282;28;45353;-68
2023/05/06 06:40:52;;;;;;;;;12.67;11.00;;;;;15.01;82.62;101317.91;4998613;28;45411;-67
2023/05/06 06:43:18;;;;;;;;;13.00;9.67;;;;;15.13;82.72;101316.66;5016672;28;45306;-68
2023/05/06 06:45:47;;;;;;;;;10.33;10.00;;;;;15.28;82.41;101318.81;5015861;28;47385;-67
2023/05/06 06:48:12;;;;;;;;;7.67;7.67;;;;;15.38;81.88;101313.19;5016207;28;45395;-67
2023/05/06 06:50:38;;;;;;;;;11.33;10.00;;;;;15.55;81.93;101321.44;4998391;28;45613;-68
2023/05/06 06:53:03;;;;;;;;;12.33;9.00;;;;;15.70;80.58;101320.06;5016491;28;45303;-67
2023/05/06 06:55:28;;;;;;;;;12.33;10.33;;;;;15.82;80.40;101309.03;5031207;28;46103;-67
2023/05/06 06:57:54;;;;;;;;;13.00;10.67;;;;;15.98;79.75;101319.09;5015954;28;45422;-68
2023/05/06 07:00:19;;;;;;;;;9.33;7.67;;;;;15.97;79.47;101314.69;5015973;28;45244;-68
2023/05/06 07:02:46;;;;;;;;;10.33;10.33;;;;;15.93;79.92;101311.31;5016390;28;45305;-67
2023/05/06 07:05:12;;;;;;;;;11.33;10.33;;;;;15.98;79.78;101330.59;5015913;28;47464;-67
2023/05/06 07:07:37;;;;;;;;;10.33;9.33;;;;;16.14;79.54;101319.41;5015711;28;45466;-68
2023/05/06 07:10:04;;;;;;;;;9.67;9.67;;;;;16.34;78.60;101335.47;5016156;28;45378;-68
2023/05/06 07:12:29;;;;;;;;;21.33;16.67;;;;;16.43;78.52;101334.25;5016059;28;45557;-68
2023/05/06 07:14:54;;;;;;;;;9.33;9.33;;;;;16.45;78.46;101331.53;5015516;28;46321;-67
2023/05/06 07:17:20;;;;;;;;;20.67;19.33;;;;;16.50;78.59;101329.59;5015465;28;45380;-68
2023/05/06 07:19:45;;;;;;;;;11.67;9.67;;;;;16.43;77.72;101299.69;5016144;28;45548;-66
2023/05/06 07:22:10;;;;;;;;;11.00;10.00;;;;;16.64;77.93;101327.25;5016030;28;45182;-67
2023/05/06 07:24:36;;;;;;;;;9.67;9.67;;;;;16.63;77.66;101328.19;5015593;28;45439;-67
2023/05/06 07:27:01;;;;;;;;;17.33;9.00;;;;;16.68;78.23;101323.53;5015558;28;45317;-69
2023/05/06 07:29:26;;;;;;;;;11.67;9.67;;;;;16.72;77.98;101321.63;5015659;28;45229;-69
2023/05/06 07:31:52;;;;;;;;;18.33;13.33;;;;;16.77;78.00;101316.13;5015778;28;45224;-69
2023/05/06 07:34:18;;;;;;;;;12.00;10.67;;;;;16.83;77.83;101330.06;5015483;28;45351;-70
2023/05/06 07:36:44;;;;;;;;;10.00;10.00;;;;;16.76;77.92;101317.03;5015529;28;45201;-70
2023/05/06 07:39:10;;;;;;;;;10.67;8.67;;;;;16.87;78.04;101333.44;5014986;28;45281;-69
2023/05/06 07:41:35;;;;;;;;;13.33;10.67;;;;;16.86;77.29;101321.06;5015697;28;45529;-69
2023/05/06 07:44:02;;;;;;;;;11.00;11.00;;;;;16.94;77.80;101328.81;5014999;28;47039;-69
2023/05/06 07:46:27;;;;;;;;;9.00;9.00;;;;;17.18;77.98;101324.25;5015321;28;45494;-69
2023/05/06 07:48:53;;;;;;;;;8.67;8.67;;;;;17.46;75.92;101334.63;5015382;28;45308;-67
2023/05/06 07:51:18;;;;;;;;;7.00;7.00;;;;;17.60;75.71;101333.19;5015761;28;45873;-68
2023/05/06 07:53:44;;;;;;;;;14.67;11.67;;;;;17.67;74.95;101335.50;5015338;27;46862;-67
2023/05/06 07:56:10;;;;;;;;;12.00;10.00;;;;;17.68;74.19;101331.06;5015308;28;45379;-67
2023/05/06 07:58:35;;;;;;;;;11.67;9.00;;;;;17.67;75.62;101338.16;5015367;28;45254;-67
2023/05/06 08:01:02;;;;;;;;;13.00;9.00;;;;;17.79;75.48;101344.78;5015338;28;45402;-67
2023/05/06 08:03:28;;;;;;;;;11.33;9.33;;;;;17.91;75.24;101335.41;5015277;28;45460;-67
2023/05/06 08:05:54;;;;;;;;;10.67;9.33;;;;;18.14;74.84;101341.50;5015209;28;45332;-68
2023/05/06 08:08:21;;;;;;;;;9.33;9.33;;;;;18.13;73.76;101332.66;5015303;28;45368;-68
2023/05/06 08:10:46;;;;;;;;;8.67;8.67;;;;;18.27;73.21;101348.03;5015358;27;45399;-67
2023/05/06 08:13:11;;;;;;;;;10.00;8.67;;;;;18.29;73.12;101338.16;5014961;28;46070;-67
2023/05/06 08:15:37;;;;;;;;;13.00;10.00;;;;;18.40;73.12;101345.66;5014936;28;45374;-67
2023/05/06 08:18:03;;;;;;;;;7.00;7.00;;;;;18.50;73.12;101335.44;5015052;28;45488;-68
2023/05/06 08:20:29;;;;;;;;;10.00;6.67;;;;;18.57;71.98;101320.88;5015192;27;45382;-67
2023/05/06 08:22:54;;;;;;;;;17.33;15.33;;;;;18.74;71.67;101342.28;5014962;28;47267;-68
2023/05/06 08:25:19;;;;;;;;;12.00;8.00;;;;;18.67;71.58;101318.63;5014850;28;45417;-67
2023/05/06 08:27:45;;;;;;;;;12.67;11.67;;;;;18.94;71.43;101344.03;5015244;28;45158;-67
2023/05/06 08:30:11;;;;;;;;;8.00;6.67;;;;;18.86;71.16;101305.28;5015212;28;45221;-68
2023/05/06 08:32:37;;;;;;;;;10.33;9.67;;;;;19.13;70.92;101341.31;5014621;28;45657;-68
2023/05/06 08:35:03;;;;;;;;;9.67;7.67;;;;;19.16;71.25;101347.47;5014806;28;45251;-69
2023/05/06 08:37:29;;;;;;;;;9.33;9.33;;;;;19.20;70.96;101349.00;5014468;28;45363;-69
2023/05/06 08:39:54;;;;;;;;;7.33;6.00;;;;;19.27;71.10;101348.66;5015211;28;45490;-69
2023/05/06 08:42:22;;;;;;;;;6.33;6.00;;;;;19.26;69.71;101324.72;5014620;28;46071;-69
2023/05/06 08:44:51;;;;;;;;;10.00;8.00;;;;;19.36;70.10;101331.31;5014164;27;45231;-68
2023/05/06 08:47:17;;;;;;;;;10.00;8.00;;;;;19.51;69.35;101334.16;5014885;28;45339;-68
2023/05/06 08:49:42;;;;;;;;;8.67;7.33;;;;;19.63;68.48;101334.38;5013434;28;45343;-68
2023/05/06 08:52:07;;;;;;;;;6.00;5.67;;;;;19.53;68.24;101303.72;5013185;28;46659;-71
2023/05/06 08:54:37;;;;;;;;;6.33;6.33;;;;;19.68;67.67;101320.78;5014499;28;45289;-69
2023/05/06 08:57:10;;;;;;;;;11.00;6.00;;;;;19.82;67.64;101334.31;5014495;28;45370;-70
2023/05/06 08:59:36;;;;;;;;;7.33;7.33;;;;;19.91;67.24;101337.44;5013073;28;45629;-69
2023/05/06 09:02:03;;;;;;;;;9.00;7.00;;;;;19.98;67.04;101333.50;5014146;28;47212;-70
2023/05/06 09:04:29;;;;;;;;;9.33;8.00;;;;;20.04;66.08;101337.66;5014255;28;45459;-69
2023/05/06 09:06:57;;;;;;;;;5.67;5.00;;;;;20.10;67.31;101340.88;5014441;28;45506;-69
2023/05/06 09:09:22;;;;;;;;;7.00;7.00;;;;;20.09;65.68;101336.47;5014280;28;45310;-69
2023/05/06 09:11:54;;;;;;;;;7.33;5.33;;;;;20.15;65.13;101329.94;5014123;28;47252;-68
2023/05/06 09:14:20;;;;;;;;;6.33;5.67;;;;;20.26;65.33;101322.19;5015482;27;45505;-68
2023/05/06 09:16:51;;;;;;;;;7.00;6.00;;;;;20.31;65.01;101333.50;5013831;28;45317;-69
2023/05/06 09:19:18;;;;;;;;;6.00;6.00;;;;;20.32;65.40;101335.22;5014524;28;45350;-70
2023/05/06 09:21:45;;;;;;;;;7.00;6.00;;;;;20.38;64.99;101331.38;5013936;28;47430;-70
2023/05/06 09:24:12;;;;;;;;;7.33;4.33;;;;;20.45;64.20;101327.41;5013779;28;45382;-70
2023/05/06 09:26:39;;;;;;;;;10.33;8.33;;;;;20.45;63.94;101316.72;5014184;28;45431;-70
2023/05/06 09:29:05;;;;;;;;;6.00;5.33;;;;;20.57;63.83;101323.19;5014343;28;45338;-68
2023/05/06 09:31:31;;;;;;;;;3.50;3.50;;;;;20.64;62.22;101315.69;5013786;28;47284;-70
2023/05/06 09:33:59;;;;;;;;;11.67;6.00;;;;;20.77;62.79;101308.72;5013940;28;45429;-70
2023/05/06 09:36:26;;;;;;;;;5.00;3.67;;;;;21.01;61.79;101321.66;5013837;28;45516;-71
2023/05/06 09:38:55;;;;;;;;;5.67;5.33;;;;;21.20;60.31;101310.72;5014020;28;45285;-71
2023/05/06 09:41:25;;;;;;;;;4.67;4.67;;;;;21.31;60.38;101286.00;5013299;28;45683;-70
2023/05/06 09:43:55;;;;;;;;;4.00;3.33;;;;;21.90;59.49;101316.38;5009533;28;46227;-69
2023/05/06 09:46:21;;;;;;;;;3.33;2.00;;;;;22.41;57.57;101312.41;4994023;28;45277;-71
2023/05/06 09:48:51;;;;;;;;;5.00;3.00;;;;;23.11;57.63;101312.31;4994302;28;45272;-74
2023/05/06 09:51:17;;;;;;;;;5.00;4.33;;;;;23.56;55.73;101301.25;4993716;28;45434;-79
2023/05/06 09:53:43;;;;;;;;;2.00;2.00;;;;;23.95;52.08;101299.47;4994170;28;45221;-74
2023/05/06 09:56:13;;;;;;;;;3.00;3.00;;;;;24.48;51.81;101301.94;4994074;28;45411;-78
2023/05/06 09:58:39;;;;;;;;;6.00;3.67;;;;;24.94;51.68;101294.19;4994189;28;46050;-77
2023/05/06 10:01:06;;;;;;;;;3.00;3.00;;;;;25.17;47.96;101300.53;4993635;28;47054;-73
2023/05/06 10:03:32;;;;;;;;;3.33;2.67;;;;;25.51;47.78;101297.97;4995693;28;45239;-75
2023/05/06 10:06:03;;;;;;;;;4.00;2.33;;;;;25.80;48.60;101305.66;4997459;28;45249;-79
2023/05/06 10:08:32;;;;;;;;;8.00;3.67;;;;;25.73;46.92;101297.16;4997227;28;45382;-78
2023/05/06 10:10:59;;;;;;;;;8.00;4.00;;;;;25.45;46.83;101302.00;4997269;28;45316;-83
2023/05/06 10:13:25;;;;;;;;;67.75;50.50;;;;;25.16;46.46;101283.50;4996895;28;45627;-81
2023/05/06 10:15:51;;;;;;;;;7.67;5.67;;;;;25.45;47.38;101299.31;4996660;28;45356;-80
2023/05/06 10:18:19;;;;;;;;;4.00;3.00;;;;;25.71;44.84;101289.19;4997035;28;45466;-79
2023/05/06 10:20:45;;;;;;;;;5.00;3.00;;;;;25.70;44.88;101273.97;4996629;28;46887;-74
2023/05/06 10:23:40;;;;;;;;;3.00;3.00;;;;;25.59;47.24;101282.06;4997148;28;45315;-75
2023/05/06 10:26:09;;;;;;;;;5.00;3.00;;;;;25.49;44.83;101278.38;4996831;28;45317;-75
2023/05/06 10:28:42;;;;;;;;;3.00;2.00;;;;;25.29;45.93;101255.63;4996816;28;45399;-74
2023/05/06 10:31:12;;;;;;;;;10.67;7.33;;;;;25.28;45.73;101281.69;4996428;28;46005;-74
2023/05/06 10:33:40;;;;;;;;;4.33;2.33;;;;;25.01;45.47;101277.44;4996531;28;45525;-74
2023/05/06 10:36:19;;;;;;;;;3.00;3.00;;;;;24.83;46.18;101284.22;4996637;28;45343;-74
2023/05/06 10:38:49;;;;;;;;;2.00;2.00;;;;;24.75;46.23;101283.94;4996723;28;45411;-75
2023/05/06 10:41:15;;;;;;;;;3.00;3.00;;;;;24.75;45.88;101278.56;4996475;28;45436;-72
2023/05/06 10:43:43;;;;;;;;;2.33;2.00;;;;;24.71;45.87;101280.59;4998988;28;45298;-74
2023/05/06 10:46:15;;;;;;;;;4.00;2.00;;;;;24.61;45.43;101269.63;5016194;28;45406;-74
2023/05/06 10:49:12;;;;;;;;;1.00;1.00;;;;;24.57;45.22;101275.34;5016653;28;45372;-85
2023/05/06 10:51:38;;;;;;;;;3.00;2.00;;;;;24.48;44.47;101250.78;5015777;28;45547;-74
2023/05/06 10:54:17;;;;;;;;;2.33;2.00;;;;;24.53;44.17;101272.03;5016096;28;45327;-77
2023/05/06 10:56:48;;;;;;;;;5.00;2.00;;;;;24.40;44.78;101266.69;5015886;28;45425;-74
2023/05/06 10:59:15;;;;;;;;;2.33;2.33;;;;;24.26;44.64;101269.50;5016090;28;45424;-75
2023/05/06 11:01:42;;;;;;;;;2.33;2.00;;;;;24.13;44.89;101258.78;5015755;28;46404;-83
2023/05/06 11:04:10;;;;;;;;;6.00;6.00;;;;;24.14;45.25;101273.94;5015781;28;45309;-76
2023/05/06 11:06:37;;;;;;;;;0.67;0.67;;;;;23.94;44.84;101270.00;5015807;28;45442;-75
2023/05/06 11:09:04;;;;;;;;;3.00;2.00;;;;;23.73;45.48;101266.94;5015905;28;45269;-77
2023/05/06 11:12:05;;;;;;;;;4.00;2.67;;;;;23.79;45.69;101271.91;5016532;27;45525;-76
2023/05/06 11:14:30;;;;;;;;;4.00;3.33;;;;;23.96;45.13;101274.28;5014373;28;45469;-78
2023/05/06 11:16:58;;;;;;;;;4.33;3.67;;;;;23.94;45.21;101270.84;5015529;28;45399;-76
2023/05/06 11:19:26;;;;;;;;;2.00;2.00;;;;;23.88;45.56;101257.84;5015748;28;45255;-77